Time,TemperatureF,DewpointF,PressureIn,WindDirection,WindDirectionDegrees,WindSpeedMPH,WindSpeedGustMPH,Humidity,HourlyPrecipIn,Conditions,Clouds,dailyrainin,SoftwareType,DateUTC
2013-02-08 00:01:00,48.0,-99.9,30.01,SW,232,6.0,8.0,-999,-99.99,,,-99.99,,2013-02-08 08:01:00,
2013-02-08 00:12:00,48.0,-99.9,30.01,SW,232,6.0,8.0,-999,-99.99,,,-99.99,,2013-02-08 08:12:00,
2013-02-08 00:22:00,48.0,-99.9,30.00,WSW,240,6.0,8.0,-999,-99.99,,,-99.99,,2013-02-08 08:22:00,
2013-02-08 00:32:00,48.0,-99.9,30.00,SW,235,6.0,9.0,-999,-99.99,,,-99.99,,2013-02-08 08:32:00,
2013-02-08 00:42:00,48.0,-99.9,29.99,WSW,237,7.0,10.0,-999,-99.99,,,-99.99,,2013-02-08 08:42:00,
2013-02-08 00:52:00,48.0,-99.9,30.00,WSW,245,5.0,9.0,-999,-99.99,,,-99.99,,2013-02-08 08:52:00,
2013-02-08 01:03:00,48.0,-99.9,29.99,WSW,251,5.0,8.0,-999,-99.99,,,-99.99,,2013-02-08 09:03:00,
2013-02-08 01:11:00,48.0,-99.9,29.99,WSW,243,4.0,7.0,-999,-99.99,,,-99.99,,2013-02-08 09:11:00,
2013-02-08 01:22:00,48.0,-99.9,29.99,WSW,243,4.0,7.0,-999,-99.99,,,-99.99,,2013-02-08 09:22:00,
2013-02-08 01:32:00,47.0,-99.9,29.99,WNW,303,4.0,6.0,-999,-99.99,,,-99.99,,2013-02-08 09:32:00,
2013-02-08 01:42:00,47.0,-99.9,29.99,WNW,303,4.0,6.0,-999,-99.99,,,-99.99,,2013-02-08 09:42:00,
2013-02-08 01:52:00,47.0,-99.9,29.98,NNE,12,1.0,2.0,-999,-99.99,,,-99.99,,2013-02-08 09:52:00,
2013-02-08 02:01:00,47.0,-99.9,29.98,East,80,0.0,1.0,-999,-99.99,,,-99.99,,2013-02-08 10:01:00,
2013-02-08 02:12:00,46.0,-99.9,29.98,NW,306,6.0,9.0,-999,-99.99,,,-99.99,,2013-02-08 10:12:00,
2013-02-08 02:22:00,46.0,-99.9,29.98,NW,306,6.0,9.0,-999,-99.99,,,-99.99,,2013-02-08 10:22:00,
2013-02-08 02:32:00,46.0,-99.9,29.97,WNW,295,6.0,8.0,-999,-99.99,,,-99.99,,2013-02-08 10:32:00,
2013-02-08 02:42:00,46.0,-99.9,29.97,WNW,295,6.0,8.0,-999,-99.99,,,-99.99,,2013-02-08 10:42:00,
2013-02-08 02:52:00,46.0,-99.9,29.97,WNW,301,6.0,8.0,-999,-99.99,,,-99.99,,2013-02-08 10:52:00,
2013-02-08 03:02:00,46.0,-99.9,29.97,WNW,301,6.0,8.0,-999,-99.99,,,-99.99,,2013-02-08 11:02:00,
2013-02-08 03:11:00,46.0,-99.9,29.97,WNW,301,6.0,8.0,-999,-99.99,,,-99.99,,2013-02-08 11:11:00,
2013-02-08 03:22:00,46.0,-99.9,29.97,WNW,301,6.0,8.0,-999,-99.99,,,-99.99,,2013-02-08 11:22:00,
2013-02-08 03:32:00,46.0,-99.9,29.96,ESE,103,1.0,2.0,-999,-99.99,,,-99.99,,2013-02-08 11:32:00,
2013-02-08 03:42:00,46.0,-99.9,29.96,ESE,107,1.0,2.0,-999,-99.99,,,-99.99,,2013-02-08 11:42:00,
2013-02-08 03:53:00,46.0,-99.9,29.96,North,357,2.0,5.0,-999,-99.99,,,-99.99,,2013-02-08 11:53:00,
2013-02-08 04:02:00,46.0,-99.9,29.96,North,357,2.0,5.0,-999,-99.99,,,-99.99,,2013-02-08 12:02:00,
2013-02-08 04:11:00,46.0,-99.9,29.96,North,357,2.0,5.0,-999,-99.99,,,-99.99,,2013-02-08 12:11:00,
2013-02-08 04:22:00,45.0,-99.9,29.95,NW,325,4.0,7.0,-999,-99.99,,,-99.99,,2013-02-08 12:22:00,
2013-02-08 04:33:00,45.0,-99.9,29.95,NW,325,4.0,7.0,-999,-99.99,,,-99.99,,2013-02-08 12:33:00,
2013-02-08 04:42:00,45.0,-99.9,29.95,NW,325,4.0,7.0,-999,-99.99,,,-99.99,,2013-02-08 12:42:00,
2013-02-08 04:53:00,45.0,-99.9,29.95,NW,325,4.0,7.0,-999,-99.99,,,-99.99,,2013-02-08 12:53:00,
2013-02-08 05:02:00,45.0,-99.9,29.96,NNE,19,6.0,9.0,-999,-99.99,,,-99.99,,2013-02-08 13:02:00,
2013-02-08 05:12:00,45.0,-99.9,29.96,NNE,19,6.0,9.0,-999,-99.99,,,-99.99,,2013-02-08 13:12:00,
2013-02-08 05:22:00,45.0,-99.9,29.96,North,7,6.0,8.0,-999,-99.99,,,-99.99,,2013-02-08 13:22:00,
2013-02-08 05:33:00,45.0,-99.9,29.96,North,7,6.0,8.0,-999,-99.99,,,-99.99,,2013-02-08 13:33:00,
2013-02-08 05:43:00,45.0,-99.9,29.96,North,7,6.0,8.0,-999,-99.99,,,-99.99,,2013-02-08 13:43:00,
2013-02-08 05:52:00,44.0,-99.9,29.97,NNW,343,8.0,10.0,-999,-99.99,,,-99.99,,2013-02-08 13:52:00,
2013-02-08 06:02:00,44.0,-99.9,29.97,NNW,343,8.0,10.0,-999,-99.99,,,-99.99,,2013-02-08 14:02:00,
2013-02-08 06:11:00,44.0,-99.9,29.97,NNW,343,8.0,10.0,-999,-99.99,,,-99.99,,2013-02-08 14:11:00,
2013-02-08 06:22:00,44.0,-99.9,29.97,NNW,343,8.0,10.0,-999,-99.99,,,-99.99,,2013-02-08 14:22:00,
2013-02-08 06:30:00,44.0,-99.9,29.98,North,0,6.0,9.0,-999,-99.99,,,-99.99,,2013-02-08 14:30:00,
2013-02-08 06:42:00,44.0,-99.9,29.98,North,350,7.0,10.0,-999,-99.99,,,-99.99,,2013-02-08 14:42:00,
2013-02-08 06:52:00,44.0,-99.9,29.98,North,0,6.0,9.0,-999,-99.99,,,-99.99,,2013-02-08 14:52:00,
2013-02-08 07:02:00,44.0,-99.9,29.98,North,0,6.0,9.0,-999,-99.99,,,-99.99,,2013-02-08 15:02:00,
2013-02-08 07:12:00,44.0,-99.9,29.98,North,0,6.0,9.0,-999,-99.99,,,-99.99,,2013-02-08 15:12:00,
2013-02-08 07:22:00,44.0,-99.9,29.98,North,0,6.0,9.0,-999,-99.99,,,-99.99,,2013-02-08 15:22:00,
2013-02-08 08:02:00,44.0,-99.9,30.00,North,353,7.0,11.0,-999,-99.99,,,-99.99,,2013-02-08 16:02:00,
2013-02-08 08:12:00,44.0,-99.9,30.00,North,353,7.0,11.0,-999,-99.99,,,-99.99,,2013-02-08 16:12:00,
2013-02-08 08:22:00,44.0,-99.9,30.00,North,353,7.0,11.0,-999,-99.99,,,-99.99,,2013-02-08 16:22:00,
2013-02-08 08:33:00,44.0,-99.9,30.00,North,353,7.0,11.0,-999,-99.99,,,-99.99,,2013-02-08 16:33:00,
2013-02-08 08:42:00,44.0,-99.9,30.01,NNW,348,10.0,15.0,-999,-99.99,,,-99.99,,2013-02-08 16:42:00,
2013-02-08 08:52:00,44.0,-99.9,30.01,NNW,348,10.0,15.0,-999,-99.99,,,-99.99,,2013-02-08 16:52:00,
2013-02-08 09:04:00,44.0,-99.9,30.01,NNW,348,10.0,15.0,-999,-99.99,,,-99.99,,2013-02-08 17:04:00,
2013-02-08 09:13:00,45.0,-99.9,30.01,NNW,347,9.0,13.0,-999,-99.99,,,-99.99,,2013-02-08 17:13:00,
2013-02-08 09:23:00,45.0,-99.9,30.01,North,355,9.0,13.0,-999,-99.99,,,-99.99,,2013-02-08 17:23:00,
2013-02-08 09:33:00,45.0,-99.9,30.01,North,355,10.0,13.0,-999,-99.99,,,-99.99,,2013-02-08 17:33:00,
2013-02-08 09:42:00,45.0,-99.9,30.01,North,355,10.0,13.0,-999,-99.99,,,-99.99,,2013-02-08 17:42:00,
2013-02-08 09:53:00,45.0,-99.9,30.02,NNW,347,11.0,14.0,-999,-99.99,,,-99.99,,2013-02-08 17:53:00,
2013-02-08 10:03:00,46.0,-99.9,30.02,NNW,345,9.0,13.0,-999,-99.99,,,-99.99,,2013-02-08 18:03:00,
2013-02-08 10:12:00,46.0,-99.9,30.02,NNW,345,9.0,13.0,-999,-99.99,,,-99.99,,2013-02-08 18:12:00,
2013-02-08 10:25:00,47.0,-99.9,30.03,NNW,334,7.0,12.0,-999,-99.99,,,-99.99,,2013-02-08 18:25:00,
2013-02-08 10:36:00,47.0,-99.9,30.03,NNW,338,9.0,12.0,-999,-99.99,,,-99.99,,2013-02-08 18:36:00,
2013-02-08 10:44:00,47.0,-99.9,30.03,NNW,338,9.0,12.0,-999,-99.99,,,-99.99,,2013-02-08 18:44:00,
2013-02-08 10:53:00,47.0,-99.9,30.03,NNW,342,8.0,13.0,-999,-99.99,,,-99.99,,2013-02-08 18:53:00,
2013-02-08 11:02:00,47.0,-99.9,30.03,NNW,342,8.0,13.0,-999,-99.99,,,-99.99,,2013-02-08 19:02:00,
2013-02-08 11:12:00,48.0,-99.9,30.03,NNE,14,6.0,16.0,-999,-99.99,,,-99.99,,2013-02-08 19:12:00,
2013-02-08 11:22:00,49.0,-99.9,30.03,North,359,6.0,11.0,-999,-99.99,,,-99.99,,2013-02-08 19:22:00,
2013-02-08 11:33:00,49.0,-99.9,30.03,NNW,346,5.0,11.0,-999,-99.99,,,-99.99,,2013-02-08 19:33:00,
2013-02-08 11:42:00,49.0,-99.9,30.02,NNW,334,9.0,12.0,-999,-99.99,,,-99.99,,2013-02-08 19:42:00,
2013-02-08 11:52:00,49.0,-99.9,30.02,North,354,7.0,13.0,-999,-99.99,,,-99.99,,2013-02-08 19:52:00,
2013-02-08 12:02:00,49.0,-99.9,30.02,NNW,340,8.0,11.0,-999,-99.99,,,-99.99,,2013-02-08 20:02:00,
2013-02-08 12:12:00,49.0,-99.9,30.02,NNW,340,8.0,11.0,-999,-99.99,,,-99.99,,2013-02-08 20:12:00,
2013-02-08 12:22:00,49.0,-99.9,30.02,NNW,340,8.0,11.0,-999,-99.99,,,-99.99,,2013-02-08 20:22:00,
2013-02-08 12:32:00,51.0,-99.9,30.01,NW,318,5.0,9.0,-999,-99.99,,,-99.99,,2013-02-08 20:32:00,
2013-02-08 12:42:00,51.0,-99.9,30.01,NNW,329,4.0,8.0,-999,-99.99,,,-99.99,,2013-02-08 20:42:00,
2013-02-08 12:53:00,51.0,-99.9,30.00,WNW,301,5.0,9.0,-999,-99.99,,,-99.99,,2013-02-08 20:53:00,
2013-02-08 13:02:00,52.0,-99.9,30.00,NW,324,5.0,8.0,-999,-99.99,,,-99.99,,2013-02-08 21:02:00,
2013-02-08 13:12:00,52.0,-99.9,30.00,NW,324,5.0,8.0,-999,-99.99,,,-99.99,,2013-02-08 21:12:00,
2013-02-08 13:22:00,52.0,-99.9,29.99,WSW,242,4.0,7.0,-999,-99.99,,,-99.99,,2013-02-08 21:22:00,
2013-02-08 13:33:00,52.0,-99.9,29.99,WSW,242,4.0,7.0,-999,-99.99,,,-99.99,,2013-02-08 21:33:00,
2013-02-08 13:42:00,52.0,-99.9,29.99,WSW,242,4.0,7.0,-999,-99.99,,,-99.99,,2013-02-08 21:42:00,
2013-02-08 13:52:00,54.0,-99.9,29.99,WSW,258,6.0,9.0,-999,-99.99,,,-99.99,,2013-02-08 21:52:00,
2013-02-08 14:02:00,54.0,-99.9,29.99,WSW,258,6.0,9.0,-999,-99.99,,,-99.99,,2013-02-08 22:02:00,
2013-02-08 14:12:00,54.0,-99.9,29.99,WSW,258,6.0,9.0,-999,-99.99,,,-99.99,,2013-02-08 22:12:00,
2013-02-08 14:22:00,54.0,-99.9,29.99,WSW,258,6.0,9.0,-999,-99.99,,,-99.99,,2013-02-08 22:22:00,
2013-02-08 14:32:00,51.0,-99.9,29.97,SW,221,9.0,14.0,-999,-99.99,,,-99.99,,2013-02-08 22:32:00,
2013-02-08 14:42:00,51.0,-99.9,29.97,SW,221,9.0,14.0,-999,-99.99,,,-99.99,,2013-02-08 22:42:00,
2013-02-08 14:52:00,52.0,-99.9,29.96,SW,222,11.0,15.0,-999,-99.99,,,-99.99,,2013-02-08 22:52:00,
2013-02-08 15:02:00,53.0,-99.9,29.96,SW,227,9.0,14.0,-999,-99.99,,,-99.99,,2013-02-08 23:02:00,
2013-02-08 15:12:00,53.0,-99.9,29.96,SW,227,9.0,14.0,-999,-99.99,,,-99.99,,2013-02-08 23:12:00,
2013-02-08 15:22:00,53.0,-99.9,29.96,SW,227,9.0,14.0,-999,-99.99,,,-99.99,,2013-02-08 23:22:00,
2013-02-08 15:32:00,53.0,-99.9,29.96,SW,228,9.0,12.0,-999,-99.99,,,-99.99,,2013-02-08 23:32:00,
2013-02-08 15:42:00,54.0,-99.9,29.96,SW,225,9.0,10.0,-999,-99.99,,,-99.99,,2013-02-08 23:42:00,
2013-02-08 15:52:00,54.0,-99.9,29.96,SW,225,9.0,10.0,-999,-99.99,,,-99.99,,2013-02-08 23:52:00,
2013-02-08 16:02:00,54.0,-99.9,29.96,SW,225,9.0,10.0,-999,-99.99,,,-99.99,,2013-02-09 00:02:00,
2013-02-08 16:12:00,54.0,-99.9,29.96,SW,225,9.0,10.0,-999,-99.99,,,-99.99,,2013-02-09 00:12:00,
2013-02-08 17:00:00,55.0,-99.9,29.96,West,279,6.0,11.0,-999,-99.99,,,-99.99,,2013-02-09 01:00:00,
2013-02-08 17:22:00,55.0,-99.9,29.96,West,279,6.0,11.0,-999,-99.99,,,-99.99,,2013-02-09 01:22:00,
2013-02-08 17:32:00,55.0,-99.9,29.96,West,279,6.0,11.0,-999,-99.99,,,-99.99,,2013-02-09 01:32:00,
2013-02-08 17:42:00,55.0,-99.9,29.96,West,279,6.0,11.0,-999,-99.99,,,-99.99,,2013-02-09 01:42:00,
2013-02-08 17:52:00,55.0,-99.9,29.96,West,279,6.0,11.0,-999,-99.99,,,-99.99,,2013-02-09 01:52:00,
2013-02-08 18:42:00,53.0,-99.9,29.97,NW,306,5.0,7.0,-999,-99.99,,,-99.99,,2013-02-09 02:42:00,
2013-02-08 19:02:00,53.0,-99.9,29.97,NW,306,5.0,7.0,-999,-99.99,,,-99.99,,2013-02-09 03:02:00,
2013-02-08 19:11:00,53.0,-99.9,29.97,NW,306,5.0,7.0,-999,-99.99,,,-99.99,,2013-02-09 03:11:00,
2013-02-08 19:22:00,53.0,-99.9,29.97,NW,306,5.0,7.0,-999,-99.99,,,-99.99,,2013-02-09 03:22:00,
2013-02-08 19:32:00,53.0,-99.9,29.97,NW,306,5.0,7.0,-999,-99.99,,,-99.99,,2013-02-09 03:32:00,
2013-02-08 19:53:00,52.0,-99.9,29.98,NNW,333,2.0,3.0,-999,-99.99,,,-99.99,,2013-02-09 03:53:00,
2013-02-08 20:03:00,51.0,-99.9,29.98,West,280,3.0,4.0,-999,-99.99,,,-99.99,,2013-02-09 04:03:00,
2013-02-08 20:12:00,51.0,-99.9,29.98,WNW,286,4.0,5.0,-999,-99.99,,,-99.99,,2013-02-09 04:12:00,
2013-02-08 20:24:00,51.0,-99.9,29.98,WNW,286,4.0,5.0,-999,-99.99,,,-99.99,,2013-02-09 04:24:00,
2013-02-08 20:32:00,50.0,-99.9,29.99,West,269,2.0,4.0,-999,-99.99,,,-99.99,,2013-02-09 04:32:00,
2013-02-08 20:43:00,51.0,-99.9,29.98,SW,230,3.0,4.0,-999,-99.99,,,-99.99,,2013-02-09 04:43:00,
2013-02-08 20:52:00,51.0,-99.9,29.98,East,93,0.0,2.0,-999,-99.99,,,-99.99,,2013-02-09 04:52:00,
2013-02-08 21:02:00,52.0,-99.9,29.99,ENE,68,2.0,3.0,-999,-99.99,,,-99.99,,2013-02-09 05:02:00,
2013-02-08 21:12:00,52.0,-99.9,29.99,North,11,1.0,2.0,-999,-99.99,,,-99.99,,2013-02-09 05:12:00,
2013-02-08 21:22:00,52.0,-99.9,29.99,NE,34,3.0,5.0,-999,-99.99,,,-99.99,,2013-02-09 05:22:00,
2013-02-08 21:32:00,53.0,-99.9,29.99,NW,313,3.0,6.0,-999,-99.99,,,-99.99,,2013-02-09 05:32:00,
2013-02-08 21:42:00,53.0,-99.9,29.99,NW,323,6.0,10.0,-999,-99.99,,,-99.99,,2013-02-09 05:42:00,
2013-02-08 21:52:00,54.0,-99.9,29.99,NW,313,6.0,9.0,-999,-99.99,,,-99.99,,2013-02-09 05:52:00,
2013-02-08 22:02:00,54.0,-99.9,29.99,NW,322,8.0,12.0,-999,-99.99,,,-99.99,,2013-02-09 06:02:00,
2013-02-08 22:11:00,55.0,-99.9,29.99,NW,325,9.0,14.0,-999,-99.99,,,-99.99,,2013-02-09 06:11:00,
2013-02-08 22:22:00,55.0,-99.9,29.99,NNW,331,10.0,15.0,-999,-99.99,,,-99.99,,2013-02-09 06:22:00,
2013-02-08 22:32:00,54.0,-99.9,29.99,NNW,330,9.0,16.0,-999,-99.99,,,-99.99,,2013-02-09 06:32:00,
2013-02-08 22:42:00,54.0,-99.9,29.99,NNW,330,9.0,16.0,-999,-99.99,,,-99.99,,2013-02-09 06:42:00,
2013-02-08 22:52:00,54.0,-99.9,29.99,NW,326,11.0,18.0,-999,-99.99,,,-99.99,,2013-02-09 06:52:00,
2013-02-08 23:01:00,54.0,-99.9,29.99,NNW,328,11.0,17.0,-999,-99.99,,,-99.99,,2013-02-09 07:01:00,
2013-02-08 23:11:00,54.0,-99.9,29.99,NNW,328,11.0,17.0,-999,-99.99,,,-99.99,,2013-02-09 07:11:00,
2013-02-08 23:22:00,54.0,-99.9,29.99,NNW,332,13.0,20.0,-999,-99.99,,,-99.99,,2013-02-09 07:22:00,
2013-02-08 23:32:00,53.0,-99.9,29.99,NNW,338,15.0,19.0,-999,-99.99,,,-99.99,,2013-02-09 07:32:00,
2013-02-08 23:42:00,53.0,-99.9,29.99,North,352,9.0,16.0,-999,-99.99,,,-99.99,,2013-02-09 07:42:00,
2013-02-08 23:52:00,53.0,-99.9,29.99,North,352,9.0,16.0,-999,-99.99,,,-99.99,,2013-02-09 07:52:00,